createdAt,value
2024-01-04T00:00:25.110Z,25.00
2024-01-04T00:02:53.548Z,30.00
2024-01-04T00:05:21.868Z,22.20
2024-01-04T00:07:49.890Z,25.40
2024-01-04T00:10:19.319Z,23.60
2024-01-04T00:12:49.303Z,22.00
2024-01-04T00:15:17.612Z,21.40
2024-01-04T00:17:46.108Z,24.10
2024-01-04T00:20:14.455Z,20.00
2024-01-04T00:22:43.368Z,28.30
2024-01-04T00:25:13.138Z,24.40
2024-01-04T00:27:42.122Z,24.70
2024-01-04T00:30:11.021Z,24.80
2024-01-04T00:32:39.262Z,20.40
2024-01-04T00:35:07.868Z,29.70
2024-01-04T00:37:36.414Z,29.70
2024-01-04T00:40:05.026Z,28.30
2024-01-04T00:42:34.016Z,28.80
2024-01-04T00:45:02.320Z,31.60
2024-01-04T00:47:30.394Z,26.90
2024-01-04T00:49:59.284Z,29.50
2024-01-04T00:52:28.448Z,29.10
2024-01-04T00:54:58.912Z,30.30
2024-01-04T00:57:27.406Z,36.10
2024-01-04T00:59:56.373Z,34.30
2024-01-04T01:02:25.003Z,30.20
2024-01-04T01:04:54.896Z,33.80
2024-01-04T01:07:23.257Z,27.30
2024-01-04T01:09:54.213Z,28.60
2024-01-04T01:12:22.851Z,24.20
2024-01-04T01:14:51.034Z,29.90
2024-01-04T01:17:19.327Z,28.90
2024-01-04T01:19:48.489Z,33.00
2024-01-04T01:22:16.536Z,30.70
2024-01-04T01:24:44.659Z,30.70
2024-01-04T01:27:13.007Z,33.20
2024-01-04T01:29:42.021Z,31.40
2024-01-04T01:32:10.608Z,37.90
2024-01-04T01:34:40.083Z,40.80
2024-01-04T01:37:08.501Z,36.10
2024-01-04T01:39:37.122Z,43.90
2024-01-04T01:42:06.246Z,37.20
2024-01-04T01:44:35.473Z,36.60
2024-01-04T01:47:03.651Z,40.30
2024-01-04T01:49:32.850Z,37.70
2024-01-04T01:52:00.957Z,34.10
2024-01-04T01:54:29.098Z,37.20
2024-01-04T01:56:57.464Z,42.60
2024-01-04T01:59:27.756Z,43.80
2024-01-04T02:01:57.326Z,44.10
2024-01-04T02:04:26.122Z,42.60
2024-01-04T02:06:54.457Z,49.10
2024-01-04T02:09:22.904Z,48.10
2024-01-04T02:11:51.647Z,42.80
2024-01-04T02:14:19.778Z,46.60
2024-01-04T02:16:50.748Z,54.30
2024-01-04T02:19:19.137Z,47.80
2024-01-04T02:21:47.606Z,51.20
2024-01-04T02:24:15.925Z,53.60
2024-01-04T02:26:44.213Z,48.80
2024-01-04T02:29:12.497Z,47.50
2024-01-04T02:31:40.806Z,48.10
2024-01-04T02:34:09.485Z,45.60
2024-01-04T02:36:37.727Z,53.20
2024-01-04T02:39:06.998Z,46.70
2024-01-04T02:41:35.211Z,54.30
2024-01-04T02:44:04.569Z,46.50
2024-01-04T02:46:34.326Z,47.80
2024-01-04T02:49:02.647Z,33.90
2024-01-04T02:51:31.650Z,52.40
2024-01-04T02:54:00.736Z,55.00
2024-01-04T02:56:31.289Z,42.50
2024-01-04T02:59:00.568Z,40.70
2024-01-04T03:01:28.635Z,39.20
2024-01-04T03:03:57.293Z,41.20
2024-01-04T03:06:27.131Z,40.50
2024-01-04T03:08:56.425Z,44.50
2024-01-04T03:11:24.500Z,44.50
2024-01-04T03:13:52.676Z,38.50
2024-01-04T03:16:22.523Z,44.00
2024-01-04T03:18:51.686Z,35.30
2024-01-04T03:21:20.430Z,44.40
2024-01-04T03:23:49.613Z,50.10
2024-01-04T03:26:18.379Z,42.90
2024-01-04T03:28:46.542Z,60.30
2024-01-04T03:31:15.093Z,59.90
2024-01-04T03:33:44.536Z,52.00
2024-01-04T03:36:15.855Z,55.50
2024-01-04T03:38:44.231Z,64.10
2024-01-04T03:41:12.527Z,59.90
2024-01-04T03:43:40.959Z,45.50
2024-01-04T03:46:14.291Z,49.00
2024-01-04T03:48:44.318Z,44.60
2024-01-04T03:51:15.088Z,44.40
2024-01-04T03:53:43.359Z,42.00
2024-01-04T03:56:11.571Z,47.70
2024-01-04T03:58:39.890Z,39.20
2024-01-04T04:01:08.978Z,36.30
2024-01-04T04:03:37.093Z,44.40
2024-01-04T04:06:06.986Z,34.70
2024-01-04T04:08:37.752Z,29.90
2024-01-04T04:11:16.339Z,31.00
2024-01-04T04:13:44.878Z,31.40
2024-01-04T04:16:13.262Z,35.50
2024-01-04T04:18:41.507Z,37.20
2024-01-04T04:21:12.190Z,31.50
2024-01-04T04:23:40.400Z,38.10
2024-01-04T04:26:08.712Z,35.80
2024-01-04T04:28:36.933Z,40.60
2024-01-04T04:31:05.054Z,47.70
2024-01-04T04:33:33.391Z,48.30
2024-01-04T04:36:02.549Z,52.00
2024-01-04T04:38:31.163Z,44.50
2024-01-04T04:40:59.422Z,48.00
2024-01-04T04:43:27.503Z,51.00
2024-01-04T04:45:57.295Z,46.70
2024-01-04T04:48:25.985Z,45.60
2024-01-04T04:50:55.424Z,47.30
2024-01-04T04:53:23.540Z,51.00
2024-01-04T04:55:52.553Z,60.20
2024-01-04T04:58:20.718Z,75.30
2024-01-04T05:00:48.794Z,88.40
2024-01-04T05:03:16.920Z,96.90
2024-01-04T05:05:46.114Z,105.90
2024-01-04T05:08:14.095Z,150.20
2024-01-04T05:10:42.906Z,139.30
2024-01-04T05:13:11.822Z,101.10
2024-01-04T05:15:39.798Z,64.10
2024-01-04T05:18:10.323Z,49.50
2024-01-04T05:20:39.481Z,42.70
2024-01-04T05:23:08.515Z,47.30
2024-01-04T05:25:40.465Z,34.90
2024-01-04T05:28:11.013Z,37.10
2024-01-04T05:30:39.357Z,47.60
2024-01-04T05:33:07.920Z,36.80
2024-01-04T05:35:36.348Z,40.80
2024-01-04T05:38:04.702Z,39.10
2024-01-04T05:40:32.846Z,38.90
2024-01-04T05:43:01.693Z,51.70
2024-01-04T05:45:30.491Z,40.60
2024-01-04T05:47:58.644Z,45.20
2024-01-04T05:50:26.715Z,38.70
2024-01-04T05:52:54.753Z,34.10
2024-01-04T05:55:22.858Z,31.80
2024-01-04T05:57:51.017Z,35.90
2024-01-04T06:00:20.940Z,34.30
2024-01-04T06:02:49.324Z,40.40
2024-01-04T06:05:17.558Z,42.00
2024-01-04T06:07:48.827Z,42.20
2024-01-04T06:10:16.849Z,35.60
2024-01-04T06:12:45.111Z,36.20
2024-01-04T06:15:13.522Z,32.90
2024-01-04T06:17:42.219Z,41.00
2024-01-04T06:20:11.018Z,41.40
2024-01-04T06:22:40.758Z,33.40
2024-01-04T06:25:11.701Z,33.00
2024-01-04T06:27:39.969Z,42.90
2024-01-04T06:30:09.801Z,34.80
2024-01-04T06:32:39.079Z,37.30
2024-01-04T06:35:09.163Z,40.70
2024-01-04T06:37:37.229Z,35.10
2024-01-04T06:40:09.683Z,39.20
2024-01-04T06:42:38.842Z,32.70
2024-01-04T06:45:08.519Z,31.60
2024-01-04T06:47:38.115Z,30.00
2024-01-04T06:50:15.240Z,35.70
2024-01-04T06:52:47.004Z,27.20
2024-01-04T06:55:16.185Z,32.40
2024-01-04T06:57:44.210Z,32.80
2024-01-04T07:00:14.149Z,33.30
2024-01-04T07:02:42.422Z,34.20
2024-01-04T07:05:12.931Z,31.80
2024-01-04T07:07:42.000Z,36.10
2024-01-04T07:10:11.527Z,35.80
2024-01-04T07:12:41.221Z,32.50
2024-01-04T07:15:11.516Z,42.70
2024-01-04T07:17:40.328Z,40.90
2024-01-04T07:20:10.635Z,28.00
2024-01-04T07:22:39.735Z,31.20
2024-01-04T07:25:08.179Z,28.00
2024-01-04T07:27:36.401Z,23.10
2024-01-04T07:30:06.305Z,28.50
2024-01-04T07:32:35.270Z,26.20
2024-01-04T07:35:12.830Z,30.80
2024-01-04T07:37:46.059Z,23.00
2024-01-04T07:40:14.810Z,27.50
2024-01-04T07:42:43.993Z,24.40
2024-01-04T07:45:12.993Z,23.80
2024-01-04T07:47:41.707Z,23.30
2024-01-04T07:50:10.342Z,22.40
2024-01-04T07:52:40.826Z,26.60
2024-01-04T07:55:09.251Z,21.40
2024-01-04T07:57:37.338Z,31.70
2024-01-04T08:00:07.510Z,21.60
2024-01-04T08:02:45.339Z,21.30
2024-01-04T08:05:15.332Z,45.60
2024-01-04T08:07:45.095Z,27.20
2024-01-04T08:10:14.015Z,26.60
2024-01-04T08:12:44.418Z,24.70
2024-01-04T08:15:12.987Z,19.90
2024-01-04T08:17:41.643Z,21.40
2024-01-04T08:20:11.484Z,20.50
2024-01-04T08:22:39.863Z,23.50
2024-01-04T08:25:09.621Z,21.20
2024-01-04T08:27:38.750Z,16.40
2024-01-04T08:30:08.313Z,22.50
2024-01-04T08:32:36.623Z,25.60
2024-01-04T08:35:05.719Z,19.30
2024-01-04T08:37:34.028Z,19.20
2024-01-04T08:40:02.432Z,17.90
2024-01-04T08:42:30.841Z,23.00
2024-01-04T08:45:00.270Z,19.40
2024-01-04T08:47:28.947Z,26.40
2024-01-04T08:50:02.401Z,20.80
2024-01-04T08:52:32.039Z,22.10
2024-01-04T08:55:00.349Z,20.20
2024-01-04T08:57:28.620Z,16.30
2024-01-04T08:59:58.007Z,20.40
2024-01-04T09:02:27.645Z,16.80
2024-01-04T09:04:58.541Z,17.80
2024-01-04T09:07:28.640Z,22.00
2024-01-04T09:09:58.389Z,16.30
2024-01-04T09:12:28.482Z,27.60
2024-01-04T09:14:56.855Z,18.40
2024-01-04T09:17:26.683Z,24.30
2024-01-04T09:19:55.185Z,22.50
2024-01-04T09:22:23.696Z,22.10
2024-01-04T09:24:53.092Z,13.80
2024-01-04T09:27:23.516Z,16.70
2024-01-04T09:29:51.806Z,14.60
2024-01-04T09:32:21.769Z,13.00
2024-01-04T09:34:51.493Z,13.10
2024-01-04T09:37:20.996Z,17.10
2024-01-04T09:39:50.568Z,22.00
2024-01-04T09:42:19.627Z,22.90
2024-01-04T09:44:48.294Z,18.60
2024-01-04T09:47:16.598Z,20.60
2024-01-04T09:49:45.970Z,15.40
2024-01-04T09:52:14.498Z,9.70
2024-01-04T09:54:42.542Z,8.90
2024-01-04T09:57:12.136Z,8.00
2024-01-04T09:59:40.357Z,11.60
2024-01-04T10:02:09.956Z,9.30
2024-01-04T10:04:38.839Z,12.00
2024-01-04T10:07:07.072Z,10.90
2024-01-04T10:09:55.992Z,9.80
2024-01-04T10:12:24.238Z,11.80
2024-01-04T10:14:52.454Z,12.20
2024-01-04T10:17:21.454Z,11.60
2024-01-04T10:19:49.627Z,19.10
2024-01-04T10:22:22.883Z,16.50
2024-01-04T10:24:52.919Z,12.80
2024-01-04T10:27:21.604Z,16.20
2024-01-04T10:29:53.109Z,15.00
2024-01-04T10:32:21.224Z,16.40
2024-01-04T10:34:51.827Z,14.50
2024-01-04T10:37:23.594Z,14.00
2024-01-04T10:39:59.394Z,21.90
2024-01-04T10:42:28.352Z,13.80
2024-01-04T10:44:57.220Z,14.50
2024-01-04T10:47:26.881Z,13.40
2024-01-04T10:49:59.426Z,16.90
2024-01-04T10:52:32.613Z,18.10
2024-01-04T10:55:01.976Z,20.10
2024-01-04T10:57:33.788Z,24.90
2024-01-04T11:00:08.575Z,17.90
2024-01-04T11:02:40.057Z,16.30
2024-01-04T11:05:10.873Z,22.70
2024-01-04T11:07:41.075Z,16.60
2024-01-04T11:10:10.802Z,18.00
2024-01-04T11:12:40.060Z,18.20
2024-01-04T11:15:08.578Z,20.30
2024-01-04T11:18:04.324Z,17.00
2024-01-04T11:20:47.798Z,14.40
2024-01-04T11:23:22.114Z,17.10
2024-01-04T11:26:27.951Z,24.40
2024-01-04T11:28:57.832Z,17.30
2024-01-04T11:31:27.406Z,16.50
2024-01-04T11:33:56.678Z,16.00
2024-01-04T11:36:25.384Z,15.40
2024-01-04T11:38:56.203Z,15.00
2024-01-04T11:41:38.432Z,14.80
2024-01-04T11:44:18.472Z,16.80
2024-01-04T11:46:47.622Z,14.90
2024-01-04T11:49:17.424Z,18.60
2024-01-04T11:51:47.212Z,13.20
2024-01-04T11:54:16.666Z,15.50
2024-01-04T11:56:45.626Z,13.60
2024-01-04T11:59:25.472Z,19.50
2024-01-04T12:01:53.744Z,21.60
2024-01-04T12:04:23.546Z,17.70
2024-01-04T12:06:51.766Z,18.30
2024-01-04T12:09:22.349Z,14.60
2024-01-04T12:11:55.814Z,19.00
2024-01-04T12:14:26.872Z,16.90
2024-01-04T12:16:55.408Z,14.00
2024-01-04T12:19:23.657Z,15.40
2024-01-04T12:21:52.252Z,14.10
2024-01-04T12:24:22.341Z,13.50
2024-01-04T12:26:52.222Z,17.70
2024-01-04T12:29:20.321Z,14.80
2024-01-04T12:31:50.674Z,13.10
2024-01-04T12:34:20.173Z,17.00
2024-01-04T12:36:48.783Z,20.30
2024-01-04T12:39:17.104Z,16.40
2024-01-04T12:41:47.734Z,14.00
2024-01-04T12:44:16.822Z,18.30
2024-01-04T12:46:48.609Z,13.70
2024-01-04T12:49:20.373Z,25.10
2024-01-04T12:51:51.360Z,15.80
2024-01-04T12:54:19.808Z,19.30
2024-01-04T12:56:48.174Z,16.40
2024-01-04T12:59:17.339Z,17.10
2024-01-04T13:01:45.937Z,26.20
2024-01-04T13:04:14.839Z,17.10
2024-01-04T13:06:43.635Z,20.30
2024-01-04T13:09:16.386Z,18.70
2024-01-04T13:11:45.785Z,19.90
2024-01-04T13:14:14.848Z,21.30
2024-01-04T13:16:43.027Z,21.30
2024-01-04T13:19:13.752Z,19.30
2024-01-04T13:21:44.183Z,27.20
2024-01-04T13:24:12.560Z,19.60
2024-01-04T13:26:44.608Z,23.00
2024-01-04T13:29:15.868Z,18.90
2024-01-04T13:31:44.212Z,19.20
2024-01-04T13:34:13.687Z,20.90
2024-01-04T13:36:42.490Z,16.40
2024-01-04T13:39:12.087Z,19.90
2024-01-04T13:41:46.153Z,23.60
2024-01-04T13:44:15.763Z,17.90
2024-01-04T13:46:44.424Z,19.00
2024-01-04T13:49:12.969Z,24.60
2024-01-04T13:51:45.933Z,25.50
2024-01-04T13:54:14.949Z,20.80
2024-01-04T13:56:43.732Z,22.50
2024-01-04T13:59:12.607Z,22.00
2024-01-04T14:01:42.160Z,18.00
2024-01-04T14:04:11.425Z,18.90
2024-01-04T14:06:40.378Z,16.10
2024-01-04T14:09:10.559Z,22.00
2024-01-04T14:11:39.481Z,30.70
2024-01-04T14:14:09.493Z,17.80
2024-01-04T14:16:38.398Z,26.10
2024-01-04T14:19:07.664Z,22.60
2024-01-04T14:21:35.931Z,19.00
2024-01-04T14:24:07.057Z,21.10
2024-01-04T14:26:35.334Z,22.60
2024-01-04T14:29:04.495Z,19.80
2024-01-04T14:31:33.523Z,25.50
2024-01-04T14:34:01.922Z,24.50
2024-01-04T14:36:30.172Z,23.20
2024-01-04T14:38:58.256Z,26.10
2024-01-04T14:41:26.366Z,24.00
2024-01-04T14:43:54.411Z,24.50
2024-01-04T14:46:24.555Z,24.30
2024-01-04T14:48:52.892Z,22.90
2024-01-04T14:51:22.659Z,31.70
2024-01-04T14:53:51.431Z,28.90
2024-01-04T14:56:19.657Z,24.20
2024-01-04T14:58:50.731Z,24.60
2024-01-04T15:01:23.379Z,26.50
2024-01-04T15:03:54.341Z,26.80
2024-01-04T15:06:23.255Z,21.90
2024-01-04T15:08:52.114Z,27.10
2024-01-04T15:11:21.440Z,23.90
2024-01-04T15:13:49.934Z,27.10
2024-01-04T15:16:19.577Z,20.20
2024-01-04T15:18:50.482Z,25.00
2024-01-04T15:21:21.401Z,21.50
2024-01-04T15:23:50.163Z,17.70
2024-01-04T15:26:18.626Z,21.50
2024-01-04T15:28:47.709Z,16.60
2024-01-04T15:31:15.781Z,23.00
2024-01-04T15:33:45.605Z,17.60
2024-01-04T15:36:15.991Z,29.00
2024-01-04T15:38:46.474Z,19.50
2024-01-04T15:41:14.534Z,20.80
2024-01-04T15:43:42.858Z,64.30
2024-01-04T15:46:11.943Z,194.30
2024-01-04T15:48:40.254Z,111.00
2024-01-04T15:51:08.831Z,101.00
2024-01-04T15:53:36.953Z,111.40
2024-01-04T15:56:05.478Z,29.10
2024-01-04T15:58:33.883Z,23.60
2024-01-04T16:01:02.068Z,20.30
2024-01-04T16:03:31.484Z,18.90
2024-01-04T16:06:02.364Z,19.40
2024-01-04T16:08:35.210Z,21.70
2024-01-04T16:11:04.199Z,17.30
2024-01-04T16:13:32.636Z,19.90
2024-01-04T16:16:01.379Z,20.00
2024-01-04T16:18:30.402Z,21.60
2024-01-04T16:20:58.596Z,18.90
2024-01-04T16:23:27.221Z,15.00
2024-01-04T16:25:55.457Z,18.40
2024-01-04T16:28:23.802Z,21.60
2024-01-04T16:30:53.037Z,17.30
2024-01-04T16:33:21.999Z,20.40
2024-01-04T16:35:51.280Z,15.40
2024-01-04T16:38:21.003Z,18.90
2024-01-04T16:40:49.262Z,12.80
2024-01-04T16:43:17.752Z,15.80
2024-01-04T16:45:49.159Z,17.70
2024-01-04T16:48:18.356Z,13.50
2024-01-04T16:50:47.064Z,13.30
2024-01-04T16:53:15.679Z,12.90
2024-01-04T16:55:43.740Z,15.10
2024-01-04T16:58:15.936Z,14.40
2024-01-04T17:00:45.355Z,17.20
2024-01-04T17:03:14.184Z,15.50
2024-01-04T17:05:42.909Z,17.20
2024-01-04T17:08:11.394Z,18.40
2024-01-04T17:10:40.103Z,13.10
2024-01-04T17:13:13.010Z,16.80
2024-01-04T17:15:42.277Z,13.50
2024-01-04T17:18:10.852Z,12.70
2024-01-04T17:20:39.183Z,13.70
2024-01-04T17:23:07.445Z,13.20
2024-01-04T17:25:35.807Z,13.60
2024-01-04T17:28:04.178Z,13.90
2024-01-04T17:30:32.388Z,19.70
2024-01-04T17:33:02.222Z,17.50
2024-01-04T17:35:32.689Z,14.50
2024-01-04T17:38:04.122Z,17.50
2024-01-04T17:40:32.289Z,14.30
2024-01-04T17:43:00.753Z,16.20
2024-01-04T17:45:29.187Z,11.90
2024-01-04T17:47:57.856Z,14.80
2024-01-04T17:50:26.945Z,13.70
2024-01-04T17:52:55.772Z,16.10
2024-01-04T17:55:24.033Z,15.10
2024-01-04T17:57:52.379Z,13.50
2024-01-04T18:00:21.622Z,16.80
2024-01-04T18:02:50.039Z,21.10
2024-01-04T18:05:18.207Z,15.80
2024-01-04T18:07:47.217Z,15.20
2024-01-04T18:10:16.774Z,15.20
2024-01-04T18:12:45.057Z,27.00
2024-01-04T18:15:14.895Z,26.90
2024-01-04T18:17:43.341Z,19.60
2024-01-04T18:20:11.853Z,18.40
2024-01-04T18:22:41.183Z,15.60
2024-01-04T18:25:09.551Z,18.40
2024-01-04T18:27:37.724Z,13.10
2024-01-04T18:30:07.027Z,20.40
2024-01-04T18:32:37.177Z,21.40
2024-01-04T18:35:05.659Z,21.20
2024-01-04T18:37:33.878Z,17.90
2024-01-04T18:40:03.113Z,16.70
2024-01-04T18:42:31.299Z,19.30
2024-01-04T18:45:00.390Z,18.20
2024-01-04T18:47:30.884Z,15.80
2024-01-04T18:49:59.236Z,19.40
2024-01-04T18:52:27.387Z,24.80
2024-01-04T18:54:55.657Z,20.50
2024-01-04T18:57:26.331Z,19.90
2024-01-04T18:59:55.551Z,19.70
2024-01-04T19:02:24.918Z,19.60
2024-01-04T19:04:54.578Z,17.40
2024-01-04T19:07:24.140Z,25.30
2024-01-04T19:09:52.753Z,21.50
2024-01-04T19:12:21.126Z,23.10
2024-01-04T19:14:49.540Z,26.20
2024-01-04T19:17:17.688Z,24.90
2024-01-04T19:19:46.131Z,24.80
2024-01-04T19:22:15.224Z,29.40
2024-01-04T19:24:43.801Z,28.30
2024-01-04T19:27:13.102Z,27.10
2024-01-04T19:29:41.288Z,24.80
2024-01-04T19:32:09.550Z,19.40
2024-01-04T19:34:38.648Z,29.00
2024-01-04T19:37:06.755Z,22.60
2024-01-04T19:39:34.948Z,20.80
2024-01-04T19:42:03.250Z,24.00
2024-01-04T19:44:31.398Z,23.70
2024-01-04T19:46:59.405Z,23.00
2024-01-04T19:49:28.861Z,20.60
2024-01-04T19:51:57.137Z,34.60
2024-01-04T19:54:29.521Z,23.50
2024-01-04T19:56:58.397Z,25.90
2024-01-04T19:59:27.133Z,28.00
2024-01-04T20:01:55.343Z,29.10
2024-01-04T20:04:23.535Z,21.20
2024-01-04T20:06:51.653Z,28.90
2024-01-04T20:09:19.769Z,28.30
2024-01-04T20:11:48.862Z,28.20
2024-01-04T20:14:17.081Z,26.40
2024-01-04T20:16:45.642Z,25.60
2024-01-04T20:19:15.033Z,22.60
2024-01-04T20:21:43.893Z,21.50
2024-01-04T20:24:13.073Z,28.20
2024-01-04T20:26:41.380Z,21.40
2024-01-04T20:29:12.382Z,21.80
2024-01-04T20:31:41.406Z,23.10
2024-01-04T20:34:12.231Z,25.80
2024-01-04T20:36:41.250Z,25.60
2024-01-04T20:39:09.545Z,28.70
2024-01-04T20:41:37.777Z,21.90
2024-01-04T20:44:06.486Z,25.00
2024-01-04T20:46:34.643Z,24.40
2024-01-04T20:49:05.191Z,26.70
2024-01-04T20:51:33.618Z,23.50
2024-01-04T20:54:02.426Z,21.70
2024-01-04T20:56:30.517Z,24.90
2024-01-04T20:59:02.245Z,22.30
2024-01-04T21:01:30.497Z,24.90
2024-01-04T21:03:59.610Z,18.40
2024-01-04T21:06:28.575Z,24.80
2024-01-04T21:08:57.150Z,23.60
2024-01-04T21:11:25.363Z,25.30
2024-01-04T21:13:53.562Z,23.10
2024-01-04T21:16:21.847Z,19.10
2024-01-04T21:18:50.904Z,22.60
2024-01-04T21:21:19.295Z,16.20
2024-01-04T21:23:47.520Z,25.00
2024-01-04T21:26:15.598Z,20.30
2024-01-04T21:28:43.759Z,25.90
2024-01-04T21:31:13.042Z,19.70
2024-01-04T21:33:41.460Z,18.60
2024-01-04T21:36:11.504Z,22.50
2024-01-04T21:38:39.646Z,25.70
2024-01-04T21:41:08.413Z,22.40
2024-01-04T21:43:36.474Z,22.00
2024-01-04T21:46:05.357Z,23.90
2024-01-04T21:48:34.982Z,27.10
2024-01-04T21:51:03.702Z,18.60
2024-01-04T21:53:32.677Z,28.50
2024-01-04T21:56:00.963Z,25.10
2024-01-04T21:58:29.932Z,21.20
2024-01-04T22:00:59.487Z,21.20
2024-01-04T22:03:28.314Z,20.00
2024-01-04T22:05:57.807Z,20.60
2024-01-04T22:08:27.393Z,19.10
2024-01-04T22:10:56.342Z,21.90
2024-01-04T22:13:24.625Z,21.00
2024-01-04T22:15:52.828Z,23.20
2024-01-04T22:18:22.835Z,25.90
2024-01-04T22:20:51.180Z,18.10
2024-01-04T22:23:19.229Z,18.10
2024-01-04T22:25:47.492Z,29.30
2024-01-04T22:28:16.361Z,22.30
2024-01-04T22:30:47.089Z,24.00
2024-01-04T22:33:16.338Z,28.90
2024-01-04T22:35:44.732Z,23.50
2024-01-04T22:38:13.324Z,25.20
2024-01-04T22:40:42.445Z,31.80
2024-01-04T22:43:10.698Z,29.60
2024-01-04T22:45:38.802Z,24.40
2024-01-04T22:48:08.015Z,29.10
2024-01-04T22:50:37.017Z,24.00
2024-01-04T22:53:05.376Z,31.70
2024-01-04T22:55:33.664Z,34.60
2024-01-04T22:58:01.638Z,33.50
2024-01-04T23:00:33.781Z,33.80
2024-01-04T23:05:30.128Z,37.20
2024-01-04T23:07:58.257Z,34.50
2024-01-04T23:10:26.359Z,38.80
2024-01-04T23:12:55.078Z,36.70
2024-01-04T23:15:23.179Z,39.70
2024-01-04T23:17:51.951Z,29.10
2024-01-04T23:20:20.825Z,42.30
2024-01-04T23:22:50.984Z,30.80
2024-01-04T23:25:20.293Z,31.50
2024-01-04T23:27:48.256Z,35.30
2024-01-04T23:30:17.758Z,35.80
2024-01-04T23:32:46.034Z,41.30
2024-01-04T23:35:15.197Z,56.50
2024-01-04T23:37:44.067Z,42.30
2024-01-04T23:40:12.614Z,32.20
2024-01-04T23:42:40.795Z,38.70
2024-01-04T23:45:11.438Z,49.90
2024-01-04T23:47:39.608Z,38.40
2024-01-04T23:50:08.119Z,51.90
2024-01-04T23:52:36.544Z,32.40
2024-01-04T23:55:07.473Z,58.20
2024-01-04T23:57:35.711Z,37.60
